Greenbush, Maine
Current Conditions -  °F | °C
As of 2:53 AM on Monday 22 Dec 2014 (Local Time) from KBGR Reporting Station
Light Snow Light Snow  
Wind Chill: 21°   Ceiling: 5000
Heat Index: 26°   Visibility: 10mi
Dew Point: 24°   Wind: 5mph
Humidity: 92%   Direction: 340°NNW
Pressure: 30.41"   Gusts: NA
Location:  45.0802°N, 68.5883°W
Report Text: KBGR 220753Z 34004KT 10SM -SN OVC050 M03/M04 A3041 RMK AO2 SNB49 SLP300 P0000 T10331044
Loading
Personal Weather Stations






























Interactive Weather Map New forecast layout! Learn more

10-Day Weather Forecast

Advertisements
Track Severe Weather on mobile